Time;durP1;ratioP1;P1;durP2;ratioP2;P2;SDS_P1;SDS_P2;PMS_P1;PMS_P2;Temp;Humidity;BMP_temperature;BMP_pressure;BME280_temperature;BME280_humidity;BME280_pressure;Samples;Min_cycle;Max_cycle;Signal;HPM_P1;HPM_P2
2023/12/30 00:00:22;;;;;;;4.85;1.20;;;11.20;99.90;;;;;;5036955;28;20152;-19
2023/12/30 00:02:48;;;;;;;4.35;0.93;;;11.20;99.90;;;;;;5034875;28;20123;-19
2023/12/30 00:05:17;;;;;;;4.20;0.90;;;11.10;99.90;;;;;;5033762;28;20053;-20
2023/12/30 00:07:46;;;;;;;5.30;0.80;;;11.20;99.90;;;;;;5034671;28;20042;-20
2023/12/30 00:10:12;;;;;;;4.00;1.00;;;11.20;99.90;;;;;;5032005;28;20037;-20
2023/12/30 00:12:38;;;;;;;5.32;1.08;;;11.20;99.90;;;;;;5037118;28;20021;-20
2023/12/30 00:15:04;;;;;;;6.43;0.90;;;11.10;99.90;;;;;;5033798;28;20029;-21
2023/12/30 00:17:30;;;;;;;4.80;0.90;;;11.20;99.90;;;;;;5034788;28;20025;-19
2023/12/30 00:19:56;;;;;;;5.30;0.80;;;11.20;99.90;;;;;;5036073;28;20036;-20
2023/12/30 00:22:21;;;;;;;5.68;0.85;;;11.20;99.90;;;;;;5037764;28;20040;-21
2023/12/30 00:24:47;;;;;;;4.33;0.90;;;11.20;99.90;;;;;;5034651;28;20563;-19
2023/12/30 00:27:13;;;;;;;3.40;0.80;;;11.10;99.90;;;;;;5038034;28;20148;-21
2023/12/30 00:29:40;;;;;;;3.93;0.83;;;11.20;99.90;;;;;;5034346;28;20116;-19
2023/12/30 00:32:06;;;;;;;2.60;0.75;;;11.10;99.90;;;;;;5032545;28;20379;-20
2023/12/30 00:34:33;;;;;;;3.83;0.70;;;11.10;99.90;;;;;;5039549;28;20022;-19
2023/12/30 00:36:59;;;;;;;4.68;0.60;;;11.10;99.90;;;;;;5037139;28;20506;-21
2023/12/30 00:39:25;;;;;;;4.60;1.00;;;11.00;99.90;;;;;;5034630;28;20098;-20
2023/12/30 00:41:51;;;;;;;3.13;1.00;;;11.00;99.90;;;;;;5035431;28;20025;-23
2023/12/30 00:44:17;;;;;;;3.83;0.80;;;11.00;99.90;;;;;;5039580;28;20176;-20
2023/12/30 00:46:42;;;;;;;3.13;0.70;;;11.00;99.90;;;;;;5033914;28;20533;-20
2023/12/30 00:49:09;;;;;;;5.07;0.85;;;11.10;99.90;;;;;;5038752;28;20017;-22
2023/12/30 00:51:35;;;;;;;4.68;1.13;;;11.00;99.90;;;;;;5031715;28;20036;-19
2023/12/30 00:54:02;;;;;;;6.40;1.00;;;11.00;99.90;;;;;;5035054;28;20025;-20
2023/12/30 00:56:28;;;;;;;6.73;1.10;;;11.00;99.90;;;;;;5034772;28;20391;-21
2023/12/30 00:58:54;;;;;;;3.35;0.90;;;11.00;99.90;;;;;;5032207;28;20320;-21
2023/12/30 01:01:19;;;;;;;2.80;0.63;;;11.00;99.90;;;;;;5036135;28;20528;-19
2023/12/30 01:03:45;;;;;;;3.33;0.70;;;11.00;99.90;;;;;;5038015;28;20029;-22
2023/12/30 01:06:11;;;;;;;3.63;1.05;;;11.00;99.90;;;;;;5034379;28;20595;-21
2023/12/30 01:08:37;;;;;;;5.00;1.05;;;11.00;99.90;;;;;;5034036;28;20016;-20
2023/12/30 01:11:03;;;;;;;3.57;0.80;;;11.00;99.90;;;;;;5037190;28;20033;-26
2023/12/30 01:13:29;;;;;;;3.47;1.10;;;11.00;99.90;;;;;;5036327;28;20107;-25
2023/12/30 01:15:55;;;;;;;4.18;0.90;;;11.00;99.90;;;;;;5034463;28;20026;-24
2023/12/30 01:18:21;;;;;;;7.80;1.10;;;11.00;99.90;;;;;;5034577;28;20032;-28
2023/12/30 01:20:46;;;;;;;4.57;0.88;;;11.00;99.90;;;;;;5034725;28;20039;-24
2023/12/30 01:23:13;;;;;;;6.30;1.23;;;11.00;99.90;;;;;;5036148;28;20227;-24
2023/12/30 01:25:39;;;;;;;6.00;0.77;;;10.90;99.90;;;;;;5034504;28;20291;-25
2023/12/30 01:28:07;;;;;;;3.78;0.80;;;10.90;99.90;;;;;;5022225;28;20029;-26
2023/12/30 01:30:35;;;;;;;2.65;0.60;;;10.90;99.90;;;;;;5039861;28;20449;-28
2023/12/30 01:33:01;;;;;;;2.42;0.60;;;10.90;99.90;;;;;;5032847;28;20030;-25
2023/12/30 01:35:27;;;;;;;4.73;0.70;;;10.90;99.90;;;;;;5032438;28;20562;-24
2023/12/30 01:37:53;;;;;;;4.22;1.00;;;10.90;99.90;;;;;;5040909;28;20043;-24
2023/12/30 01:40:18;;;;;;;2.57;0.67;;;10.80;99.90;;;;;;5033546;28;20631;-30
2023/12/30 01:42:44;;;;;;;3.43;0.60;;;10.80;99.90;;;;;;5033629;28;20087;-29
2023/12/30 01:45:10;;;;;;;4.30;0.90;;;10.80;99.90;;;;;;5031730;28;20280;-27
2023/12/30 01:47:36;;;;;;;5.07;0.70;;;10.80;99.90;;;;;;5031410;28;20470;-26
2023/12/30 01:50:08;;;;;;;1.98;0.70;;;10.70;99.90;;;;;;5033949;28;20036;-27
2023/12/30 01:52:35;;;;;;;2.05;0.70;;;10.70;99.90;;;;;;5032472;28;20032;-25
2023/12/30 01:55:03;;;;;;;2.45;0.80;;;10.70;99.90;;;;;;5035713;28;20029;-25
2023/12/30 01:57:29;;;;;;;3.30;0.60;;;10.70;99.90;;;;;;5020681;28;20082;-23
2023/12/30 01:59:56;;;;;;;4.20;0.70;;;10.70;99.90;;;;;;5033564;28;20476;-26
2023/12/30 02:02:22;;;;;;;3.75;0.70;;;10.70;99.90;;;;;;5034429;28;20617;-25
2023/12/30 02:04:48;;;;;;;4.40;0.70;;;10.70;99.90;;;;;;5035373;28;20395;-26
2023/12/30 02:07:14;;;;;;;6.00;1.30;;;10.70;99.90;;;;;;5033558;28;20564;-24
2023/12/30 02:09:40;;;;;;;3.53;0.60;;;10.60;99.90;;;;;;5037489;28;20358;-27
2023/12/30 02:12:06;;;;;;;2.90;0.57;;;10.60;99.90;;;;;;5033304;28;20229;-23
2023/12/30 02:14:33;;;;;;;3.65;0.70;;;10.60;99.90;;;;;;5016082;28;20066;-24
2023/12/30 02:16:58;;;;;;;2.20;0.57;;;10.60;99.90;;;;;;5036550;28;20037;-24
2023/12/30 02:19:25;;;;;;;1.52;0.50;;;10.60;99.90;;;;;;5033219;28;20056;-19
2023/12/30 02:21:51;;;;;;;3.67;0.73;;;10.70;99.90;;;;;;5022542;28;20137;-21
2023/12/30 02:24:18;;;;;;;4.47;0.80;;;10.70;99.90;;;;;;5039042;28;20034;-20
2023/12/30 02:26:44;;;;;;;4.43;0.70;;;10.60;99.90;;;;;;5030245;28;20033;-23
2023/12/30 02:29:09;;;;;;;5.28;1.08;;;10.70;99.90;;;;;;5035856;28;20032;-21
2023/12/30 02:31:45;;;;;;;2.97;0.70;;;10.70;99.90;;;;;;5031469;28;20056;-20
2023/12/30 02:34:16;;;;;;;5.05;0.70;;;10.60;99.90;;;;;;5039113;28;20478;-19
2023/12/30 02:36:43;;;;;;;8.98;0.75;;;10.60;99.90;;;;;;5034002;28;20037;-19
2023/12/30 02:39:09;;;;;;;4.60;0.70;;;10.60;99.90;;;;;;5036422;28;20039;-20
2023/12/30 02:41:35;;;;;;;3.00;0.70;;;10.60;99.90;;;;;;5033082;28;20036;-20
2023/12/30 02:44:02;;;;;;;6.17;1.57;;;10.60;99.90;;;;;;5015653;28;20041;-22
2023/12/30 02:46:28;;;;;;;3.92;0.80;;;10.60;99.90;;;;;;5039474;28;20494;-20
2023/12/30 02:48:54;;;;;;;6.25;1.30;;;10.60;99.90;;;;;;5020416;28;20052;-19
2023/12/30 02:51:20;;;;;;;9.00;1.70;;;10.60;99.90;;;;;;5033954;28;20356;-21
2023/12/30 02:53:46;;;;;;;7.97;1.38;;;10.60;99.90;;;;;;5032220;28;20087;-20
2023/12/30 02:56:19;;;;;;;4.70;1.05;;;10.60;99.90;;;;;;5033484;28;20997;-21
2023/12/30 02:58:48;;;;;;;3.90;0.87;;;10.60;99.90;;;;;;5032120;28;20502;-19
2023/12/30 03:01:13;;;;;;;3.65;1.00;;;10.60;99.90;;;;;;5032394;28;20045;-20
2023/12/30 03:03:39;;;;;;;5.70;1.02;;;10.60;99.90;;;;;;5036588;28;20048;-19
2023/12/30 03:06:05;;;;;;;6.00;0.97;;;10.50;99.90;;;;;;5032464;28;20021;-20
2023/12/30 03:08:31;;;;;;;2.85;0.80;;;10.60;99.90;;;;;;5029591;28;20526;-21
2023/12/30 03:10:56;;;;;;;5.53;0.80;;;10.60;99.90;;;;;;5034376;28;20033;-19
2023/12/30 03:13:22;;;;;;;4.75;1.00;;;10.60;99.90;;;;;;5032688;28;20461;-20
2023/12/30 03:15:48;;;;;;;6.03;1.07;;;10.60;99.90;;;;;;5032605;28;20033;-22
2023/12/30 03:18:13;;;;;;;9.07;1.13;;;10.50;99.90;;;;;;5033228;28;20283;-21
2023/12/30 03:20:39;;;;;;;6.83;1.03;;;10.60;99.90;;;;;;5034273;28;20025;-21
2023/12/30 03:23:05;;;;;;;4.60;0.77;;;10.60;99.90;;;;;;5034662;28;20676;-20
2023/12/30 03:25:32;;;;;;;3.72;0.90;;;10.60;99.90;;;;;;5020579;28;20403;-19
2023/12/30 03:27:58;;;;;;;5.63;1.00;;;10.60;99.90;;;;;;5030164;28;20729;-21
2023/12/30 03:30:24;;;;;;;6.88;1.10;;;10.60;99.90;;;;;;5041325;28;20029;-20
2023/12/30 03:32:49;;;;;;;4.67;1.23;;;10.60;99.90;;;;;;5043507;28;20105;-20
2023/12/30 03:35:16;;;;;;;4.55;0.80;;;10.60;99.90;;;;;;5039698;28;20043;-19
2023/12/30 03:37:42;;;;;;;2.47;0.77;;;10.60;99.90;;;;;;5040524;28;20126;-22
2023/12/30 03:40:08;;;;;;;5.43;1.00;;;10.60;99.90;;;;;;5037043;28;20032;-18
2023/12/30 03:42:34;;;;;;;7.35;1.30;;;10.60;99.90;;;;;;5034537;28;20442;-24
2023/12/30 03:45:01;;;;;;;4.43;1.00;;;10.50;99.90;;;;;;5023043;28;20241;-20
2023/12/30 03:47:27;;;;;;;5.07;0.98;;;10.50;99.90;;;;;;5041998;28;20029;-22
2023/12/30 03:49:52;;;;;;;3.53;0.63;;;10.50;99.90;;;;;;5036879;28;20111;-20
2023/12/30 03:52:18;;;;;;;3.50;0.87;;;10.50;99.90;;;;;;5035343;28;20650;-19
2023/12/30 03:54:43;;;;;;;6.77;0.90;;;10.50;99.90;;;;;;5038982;28;20040;-20
2023/12/30 03:57:09;;;;;;;4.28;0.77;;;10.50;99.90;;;;;;5038989;28;20446;-22
2023/12/30 03:59:36;;;;;;;5.27;0.70;;;10.50;99.90;;;;;;5035629;28;20120;-22
2023/12/30 04:02:02;;;;;;;5.28;0.90;;;10.80;99.90;;;;;;5036210;28;20053;-21
2023/12/30 04:04:28;;;;;;;8.02;1.35;;;10.40;99.90;;;;;;5035477;28;20036;-20
2023/12/30 04:06:53;;;;;;;6.10;1.00;;;10.40;99.90;;;;;;5039760;28;20033;-20
2023/12/30 04:09:19;;;;;;;5.72;0.80;;;10.40;99.90;;;;;;5036800;28;20128;-20
2023/12/30 04:11:45;;;;;;;6.50;1.20;;;10.40;99.90;;;;;;5038594;28;20067;-19
2023/12/30 04:14:10;;;;;;;5.55;0.80;;;10.40;99.90;;;;;;5037464;28;20415;-20
2023/12/30 04:16:36;;;;;;;7.33;1.00;;;10.40;99.90;;;;;;5037063;28;20029;-19
2023/12/30 04:19:02;;;;;;;3.30;0.80;;;10.40;99.90;;;;;;5035513;28;20561;-20
2023/12/30 04:21:28;;;;;;;2.65;0.70;;;10.40;99.90;;;;;;5039579;28;20028;-20
2023/12/30 04:23:53;;;;;;;4.22;1.05;;;10.40;99.90;;;;;;5036237;28;20132;-20
2023/12/30 04:26:19;;;;;;;3.30;0.83;;;10.30;99.90;;;;;;5035462;28;20438;-19
2023/12/30 04:28:46;;;;;;;2.83;0.80;;;10.30;99.90;;;;;;5039311;28;20017;-23
2023/12/30 04:31:12;;;;;;;5.75;1.00;;;10.30;99.90;;;;;;5019816;28;20512;-20
2023/12/30 04:33:38;;;;;;;3.27;0.90;;;10.30;99.90;;;;;;5036212;28;20021;-21
2023/12/30 04:36:04;;;;;;;5.18;0.93;;;10.30;99.90;;;;;;5025024;28;20076;-22
2023/12/30 04:38:29;;;;;;;6.17;0.70;;;10.30;99.90;;;;;;5032930;28;20541;-21
2023/12/30 04:40:56;;;;;;;5.38;0.80;;;10.20;99.90;;;;;;5035174;28;20104;-20
2023/12/30 04:43:22;;;;;;;3.00;0.70;;;10.20;99.90;;;;;;5035593;28;20033;-19
2023/12/30 04:45:47;;;;;;;5.17;0.90;;;10.20;99.90;;;;;;5035449;28;20031;-21
2023/12/30 04:48:13;;;;;;;3.92;1.10;;;10.20;99.90;;;;;;5036478;28;20017;-19
2023/12/30 04:50:39;;;;;;;4.00;0.90;;;10.20;99.90;;;;;;5035295;28;20021;-19
2023/12/30 04:53:05;;;;;;;4.35;1.00;;;10.20;99.90;;;;;;5036058;28;20021;-19
2023/12/30 04:55:30;;;;;;;4.40;1.07;;;10.20;99.90;;;;;;5035862;28;20033;-19
2023/12/30 04:57:57;;;;;;;4.43;0.90;;;10.20;99.90;;;;;;5036101;28;20258;-22
2023/12/30 05:00:23;;;;;;;3.40;1.20;;;10.10;99.90;;;;;;5033513;28;20087;-20
2023/12/30 05:02:48;;;;;;;3.25;1.05;;;10.20;99.90;;;;;;5017849;28;20037;-20
2023/12/30 05:05:14;;;;;;;4.13;1.47;;;10.10;99.90;;;;;;5033602;28;20087;-19
2023/12/30 05:07:40;;;;;;;5.82;1.27;;;10.20;99.90;;;;;;5033959;28;20329;-21
2023/12/30 05:10:08;;;;;;;5.03;1.30;;;10.10;99.90;;;;;;5033133;28;20029;-19
2023/12/30 05:12:33;;;;;;;5.22;1.15;;;10.10;99.90;;;;;;5037071;28;20021;-20
2023/12/30 05:14:59;;;;;;;3.17;0.90;;;10.10;99.90;;;;;;5018203;28;20028;-23
2023/12/30 05:17:25;;;;;;;5.30;1.63;;;10.10;99.90;;;;;;5031183;28;20059;-21
2023/12/30 05:19:51;;;;;;;2.47;1.00;;;10.10;99.90;;;;;;5035561;28;20029;-19
2023/12/30 05:22:17;;;;;;;3.20;0.93;;;10.10;99.90;;;;;;5040255;28;20064;-19
2023/12/30 05:24:42;;;;;;;5.07;1.30;;;10.10;99.90;;;;;;5033272;28;20036;-21
2023/12/30 05:27:08;;;;;;;6.43;0.90;;;10.10;99.90;;;;;;5034364;28;20025;-19
2023/12/30 05:29:34;;;;;;;2.97;0.80;;;10.10;99.90;;;;;;5019441;28;20028;-19
2023/12/30 05:32:00;;;;;;;5.50;0.85;;;10.10;99.90;;;;;;5037241;28;20575;-20
2023/12/30 05:34:25;;;;;;;5.90;0.87;;;10.10;99.90;;;;;;5023977;28;20090;-22
2023/12/30 05:36:51;;;;;;;6.15;1.00;;;10.10;99.90;;;;;;5018533;28;20022;-21
2023/12/30 05:39:17;;;;;;;4.37;1.00;;;10.10;99.90;;;;;;5032285;28;20406;-21
2023/12/30 05:41:43;;;;;;;2.22;1.05;;;10.10;99.90;;;;;;5033275;28;20060;-20
2023/12/30 05:44:09;;;;;;;5.37;1.10;;;10.00;99.90;;;;;;5035241;28;20106;-19
2023/12/30 05:46:35;;;;;;;4.83;1.00;;;10.00;99.90;;;;;;5034869;28;20692;-20
2023/12/30 05:49:00;;;;;;;3.03;1.02;;;10.00;99.90;;;;;;5034727;28;20507;-22
2023/12/30 05:51:26;;;;;;;3.27;0.70;;;10.00;99.90;;;;;;5033700;28;20031;-25
2023/12/30 05:53:52;;;;;;;4.68;0.80;;;10.00;99.90;;;;;;5024325;28;20033;-27
2023/12/30 05:56:24;;;;;;;7.23;1.10;;;10.00;99.90;;;;;;5032991;28;20119;-23
2023/12/30 05:58:52;;;;;;;5.70;1.20;;;10.00;99.90;;;;;;5030374;28;20133;-24
2023/12/30 06:01:18;;;;;;;3.10;0.95;;;10.00;99.90;;;;;;5032107;28;20451;-23
2023/12/30 06:03:43;;;;;;;5.80;1.07;;;10.10;99.90;;;;;;5018040;28;20029;-24
2023/12/30 06:06:09;;;;;;;4.63;1.02;;;10.10;99.90;;;;;;5038310;28;20033;-26
2023/12/30 06:08:35;;;;;;;3.57;1.00;;;10.10;99.90;;;;;;5023296;28;20100;-24
2023/12/30 06:11:01;;;;;;;3.03;0.85;;;10.10;99.90;;;;;;5033929;28;20056;-26
2023/12/30 06:13:27;;;;;;;3.40;0.85;;;10.10;99.90;;;;;;5035249;28;20033;-29
2023/12/30 06:15:56;;;;;;;5.17;1.43;;;10.10;99.90;;;;;;5034788;28;20099;-26
2023/12/30 06:18:26;;;;;;;4.93;1.00;;;10.10;99.90;;;;;;5031441;28;20497;-27
2023/12/30 06:20:52;;;;;;;6.13;1.30;;;10.10;99.90;;;;;;5031024;28;20060;-27
2023/12/30 06:23:17;;;;;;;3.97;0.90;;;10.10;99.90;;;;;;5035067;28;20065;-24
2023/12/30 06:25:43;;;;;;;6.38;1.17;;;10.20;99.90;;;;;;5033602;28;20036;-23
2023/12/30 06:28:09;;;;;;;6.80;1.30;;;10.10;99.90;;;;;;5032168;28;20027;-23
2023/12/30 06:30:34;;;;;;;4.25;0.98;;;10.20;99.90;;;;;;5035318;28;20584;-25
2023/12/30 06:33:06;;;;;;;1.83;0.90;;;10.20;99.90;;;;;;5035987;28;20391;-25
2023/12/30 06:35:33;;;;;;;6.00;1.48;;;10.20;99.90;;;;;;5034047;28;20446;-24
2023/12/30 06:37:59;;;;;;;4.20;1.02;;;10.20;99.90;;;;;;5035860;28;20029;-24
2023/12/30 06:40:25;;;;;;;5.60;1.30;;;10.20;99.90;;;;;;5034109;28;20391;-26
2023/12/30 06:42:50;;;;;;;6.22;1.20;;;10.20;99.90;;;;;;5034349;28;20037;-25
2023/12/30 06:45:16;;;;;;;5.60;1.30;;;10.20;99.90;;;;;;5035742;28;20037;-23
2023/12/30 06:47:45;;;;;;;4.35;1.00;;;10.30;99.90;;;;;;5033935;28;20107;-24
2023/12/30 06:50:15;;;;;;;1.97;0.87;;;10.30;99.90;;;;;;5030449;28;20491;-24
2023/12/30 06:52:41;;;;;;;4.72;1.15;;;10.20;99.90;;;;;;5033615;28;20038;-23
2023/12/30 06:55:08;;;;;;;5.43;1.27;;;10.20;99.90;;;;;;5032150;28;20067;-25
2023/12/30 06:57:34;;;;;;;4.47;1.02;;;10.30;99.90;;;;;;5033649;28;20040;-25
2023/12/30 07:00:03;;;;;;;4.93;1.50;;;10.20;99.90;;;;;;5031575;28;20033;-36
2023/12/30 07:02:29;;;;;;;6.43;1.23;;;10.30;99.90;;;;;;5033603;28;20043;-24
2023/12/30 07:04:55;;;;;;;4.82;1.13;;;10.30;99.90;;;;;;5036066;28;20017;-23
2023/12/30 07:07:21;;;;;;;4.93;1.20;;;10.20;99.90;;;;;;5036793;28;20063;-26
2023/12/30 07:09:46;;;;;;;2.83;1.00;;;10.30;99.90;;;;;;5035196;28;20021;-26
2023/12/30 07:12:13;;;;;;;4.43;1.13;;;10.30;99.90;;;;;;5022505;28;20033;-23
2023/12/30 07:14:39;;;;;;;3.33;0.95;;;10.30;99.90;;;;;;5035297;28;20495;-23
2023/12/30 07:17:04;;;;;;;4.13;1.30;;;10.30;99.90;;;;;;5040429;28;20052;-23
2023/12/30 07:19:30;;;;;;;5.88;1.55;;;10.30;99.90;;;;;;5036111;28;20017;-24
2023/12/30 07:21:56;;;;;;;5.20;1.00;;;10.30;99.90;;;;;;5037919;28;20319;-24
2023/12/30 07:24:22;;;;;;;3.50;0.90;;;10.30;99.90;;;;;;5033605;28;20040;-24
2023/12/30 07:26:47;;;;;;;2.85;0.80;;;10.20;99.90;;;;;;5032016;28;20031;-26
2023/12/30 07:29:13;;;;;;;3.20;1.13;;;10.30;99.90;;;;;;5025651;28;20082;-24
2023/12/30 07:31:39;;;;;;;3.85;1.00;;;10.20;99.90;;;;;;5037029;28;20029;-25
2023/12/30 07:34:05;;;;;;;3.25;1.20;;;10.20;99.90;;;;;;5039474;28;20013;-23
2023/12/30 07:36:31;;;;;;;4.83;1.20;;;10.20;99.90;;;;;;5041361;28;20036;-26
2023/12/30 07:38:58;;;;;;;4.65;1.40;;;10.20;99.90;;;;;;5036362;28;20075;-26
2023/12/30 07:41:24;;;;;;;5.03;1.67;;;10.00;99.90;;;;;;5041830;28;20048;-25
2023/12/30 07:43:49;;;;;;;8.97;2.13;;;10.10;99.90;;;;;;5039683;28;20083;-26
2023/12/30 07:46:16;;;;;;;8.18;1.92;;;10.20;99.90;;;;;;5038435;28;20033;-29
2023/12/30 07:48:42;;;;;;;5.03;1.63;;;10.10;99.90;;;;;;5036234;28;20041;-24
2023/12/30 07:51:08;;;;;;;5.53;1.70;;;10.20;99.90;;;;;;5043967;28;20065;-23
2023/12/30 07:53:34;;;;;;;7.20;2.20;;;10.10;99.90;;;;;;5037739;28;20668;-24
2023/12/30 07:55:59;;;;;;;6.43;2.30;;;10.10;99.90;;;;;;5040690;28;20026;-26
2023/12/30 07:58:25;;;;;;;7.07;2.10;;;10.10;99.90;;;;;;5036095;28;20374;-23
2023/12/30 08:00:51;;;;;;;6.68;2.22;;;10.10;99.90;;;;;;5035047;28;20143;-23
2023/12/30 08:03:17;;;;;;;7.05;2.30;;;10.20;99.90;;;;;;5037873;28;20078;-26
2023/12/30 08:05:43;;;;;;;7.57;2.30;;;10.20;99.90;;;;;;5035190;28;20033;-24
2023/12/30 08:08:08;;;;;;;7.80;2.15;;;10.10;99.90;;;;;;5032999;28;20022;-23
2023/12/30 08:10:34;;;;;;;11.07;2.60;;;10.20;99.90;;;;;;5033233;28;20116;-24
2023/12/30 08:13:00;;;;;;;5.20;2.15;;;10.10;99.90;;;;;;5038089;28;20503;-25
2023/12/30 08:15:26;;;;;;;6.65;2.30;;;10.10;99.90;;;;;;5036104;28;20065;-27
2023/12/30 08:17:52;;;;;;;9.47;3.00;;;10.20;99.90;;;;;;5036772;28;20040;-27
2023/12/30 08:20:18;;;;;;;6.97;2.90;;;10.10;99.90;;;;;;5040238;28;20032;-24
2023/12/30 08:22:44;;;;;;;14.27;3.80;;;10.20;99.90;;;;;;5034625;28;20713;-27
2023/12/30 08:25:13;;;;;;;9.43;3.30;;;10.10;99.90;;;;;;5029632;28;20651;-23
2023/12/30 08:27:39;;;;;;;9.48;2.97;;;10.20;99.90;;;;;;5038939;28;20029;-25
2023/12/30 08:30:05;;;;;;;8.55;2.47;;;10.30;99.90;;;;;;5034568;28;20098;-29
2023/12/30 08:32:31;;;;;;;6.38;2.20;;;10.30;99.90;;;;;;5033762;28;20114;-23
2023/12/30 08:34:57;;;;;;;10.63;3.43;;;10.30;99.90;;;;;;5024529;28;20554;-24
2023/12/30 08:37:23;;;;;;;6.93;2.35;;;10.30;99.90;;;;;;5035610;28;20037;-24
2023/12/30 08:39:50;;;;;;;7.95;2.78;;;10.30;99.90;;;;;;5035381;28;20029;-27
2023/12/30 08:42:16;;;;;;;7.80;2.40;;;10.40;99.90;;;;;;5034919;28;20083;-26
2023/12/30 08:44:43;;;;;;;9.73;2.90;;;10.40;99.90;;;;;;5035542;28;20026;-26
2023/12/30 08:47:10;;;;;;;5.88;2.05;;;10.40;99.90;;;;;;5036305;28;20037;-29
2023/12/30 08:49:36;;;;;;;7.63;2.30;;;10.50;99.90;;;;;;5022444;28;20025;-28
2023/12/30 08:52:03;;;;;;;7.43;2.45;;;10.40;99.90;;;;;;5033736;28;20487;-25
2023/12/30 08:54:29;;;;;;;4.97;2.05;;;10.50;99.90;;;;;;5034192;28;20313;-24
2023/12/30 08:56:55;;;;;;;6.30;2.63;;;10.50;99.90;;;;;;5031305;28;20095;-25
2023/12/30 08:59:22;;;;;;;5.25;1.98;;;10.50;99.90;;;;;;5003947;28;20027;-24
2023/12/30 09:01:48;;;;;;;4.13;2.00;;;10.60;99.90;;;;;;5017392;28;20387;-26
2023/12/30 09:04:14;;;;;;;6.80;1.93;;;10.60;99.90;;;;;;5031813;28;20089;-24
2023/12/30 09:06:40;;;;;;;6.95;2.33;;;10.70;99.90;;;;;;5033282;28;20509;-28
2023/12/30 09:09:06;;;;;;;6.13;1.93;;;10.70;99.90;;;;;;5037128;28;20092;-24
2023/12/30 09:11:37;;;;;;;6.82;1.95;;;10.70;99.90;;;;;;5032640;28;20078;-25
2023/12/30 09:14:04;;;;;;;6.65;2.15;;;10.80;99.90;;;;;;5032325;28;20067;-26
2023/12/30 09:16:29;;;;;;;7.45;2.05;;;10.80;99.90;;;;;;5032171;28;20044;-24
2023/12/30 09:18:55;;;;;;;8.63;2.43;;;10.80;99.90;;;;;;5032587;28;20072;-25
2023/12/30 09:21:21;;;;;;;7.70;2.25;;;10.90;99.90;;;;;;5036059;28;20063;-20
2023/12/30 09:23:47;;;;;;;5.83;1.90;;;10.90;99.90;;;;;;5014480;28;20550;-19
2023/12/30 09:26:14;;;;;;;6.10;1.80;;;11.00;99.90;;;;;;5020866;28;20488;-20
2023/12/30 09:28:39;;;;;;;5.70;1.87;;;11.00;99.90;;;;;;5036374;28;20573;-20
2023/12/30 09:31:05;;;;;;;7.07;2.38;;;11.10;99.90;;;;;;5034949;28;20029;-20
2023/12/30 09:33:31;;;;;;;4.07;1.60;;;11.10;99.90;;;;;;5035383;28;20108;-19
2023/12/30 09:35:57;;;;;;;7.83;2.13;;;11.20;99.90;;;;;;5036684;28;20280;-19
2023/12/30 09:38:23;;;;;;;3.67;1.77;;;11.30;99.90;;;;;;5027981;28;20391;-20
2023/12/30 09:40:53;;;;;;;7.55;1.98;;;11.30;99.90;;;;;;5030504;28;20029;-21
2023/12/30 09:43:26;;;;;;;3.57;1.70;;;11.40;99.90;;;;;;5032223;28;20090;-21
2023/12/30 09:45:54;;;;;;;6.60;1.80;;;11.40;99.90;;;;;;5030987;28;20025;-20
2023/12/30 09:48:24;;;;;;;6.07;1.88;;;11.50;99.90;;;;;;5017258;28;20400;-21
2023/12/30 09:50:51;;;;;;;6.25;2.13;;;11.60;99.90;;;;;;5033093;28;20044;-21
2023/12/30 09:53:17;;;;;;;4.57;1.90;;;11.70;99.90;;;;;;5027355;28;20115;-20
2023/12/30 09:55:47;;;;;;;4.00;1.80;;;11.70;99.90;;;;;;5027060;28;20116;-21
2023/12/30 09:58:17;;;;;;;6.07;1.92;;;11.80;99.90;;;;;;5030007;28;20403;-22
2023/12/30 10:00:43;;;;;;;4.90;1.70;;;11.90;99.90;;;;;;5041669;28;20048;-23
2023/12/30 10:03:13;;;;;;;6.10;1.80;;;12.00;99.90;;;;;;5028795;28;20388;-20
2023/12/30 10:05:39;;;;;;;6.05;1.88;;;12.00;99.90;;;;;;5029395;28;20124;-21
2023/12/30 10:08:07;;;;;;;5.25;1.60;;;12.10;99.90;;;;;;5029400;28;20041;-21
2023/12/30 10:10:44;;;;;;;5.55;1.70;;;12.10;99.90;;;;;;5030902;28;20035;-23
2023/12/30 10:13:11;;;;;;;7.57;1.90;;;12.20;99.90;;;;;;5015412;28;20123;-20
2023/12/30 10:15:39;;;;;;;6.37;1.93;;;12.20;99.90;;;;;;5030589;28;20030;-22
2023/12/30 10:18:07;;;;;;;7.22;2.00;;;12.30;99.90;;;;;;5030253;28;20494;-20
2023/12/30 10:20:39;;;;;;;5.45;1.67;;;12.30;99.90;;;;;;5033169;28;20543;-20
2023/12/30 10:23:06;;;;;;;3.65;1.55;;;12.30;99.90;;;;;;5035839;28;20513;-22
2023/12/30 10:25:31;;;;;;;5.60;1.63;;;12.40;99.90;;;;;;5024927;28;20108;-21
2023/12/30 10:27:57;;;;;;;6.37;2.17;;;12.40;99.90;;;;;;5033829;28;20104;-19
2023/12/30 10:30:23;;;;;;;4.00;1.58;;;12.40;99.90;;;;;;5033144;28;20494;-23
2023/12/30 10:32:49;;;;;;;6.00;2.37;;;12.40;99.90;;;;;;5035823;28;20037;-28
2023/12/30 10:35:16;;;;;;;8.70;2.45;;;12.40;99.90;;;;;;5033915;28;20040;-30
2023/12/30 10:37:42;;;;;;;5.72;2.80;;;12.40;99.90;;;;;;5032366;28;20029;-27
2023/12/30 10:40:09;;;;;;;5.20;2.60;;;12.40;99.90;;;;;;5027204;28;20024;-24
2023/12/30 10:42:36;;;;;;;8.65;3.20;;;12.30;99.90;;;;;;5028675;28;20340;-24
2023/12/30 10:45:02;;;;;;;7.80;3.05;;;12.30;99.90;;;;;;5032148;28;20041;-25
2023/12/30 10:47:30;;;;;;;7.28;3.30;;;12.30;99.90;;;;;;5030632;28;20109;-25
2023/12/30 10:50:04;;;;;;;5.45;2.92;;;12.30;99.90;;;;;;5027772;28;20018;-25
2023/12/30 10:52:32;;;;;;;5.47;2.70;;;12.30;99.90;;;;;;5037663;28;20025;-27
2023/12/30 10:55:09;;;;;;;7.70;2.60;;;12.40;99.90;;;;;;5032166;28;20379;-25
2023/12/30 10:57:45;;;;;;;6.25;2.60;;;12.50;99.90;;;;;;5030191;28;20021;-29
2023/12/30 11:00:14;;;;;;;6.90;2.50;;;12.60;99.90;;;;;;5029826;28;20099;-26
2023/12/30 11:02:42;;;;;;;7.43;2.30;;;12.80;99.90;;;;;;5031604;28;20410;-26
2023/12/30 11:05:19;;;;;;;6.03;2.00;;;13.00;99.90;;;;;;5022065;28;20490;-25
2023/12/30 11:07:44;;;;;;;7.38;2.00;;;13.20;99.90;;;;;;5028853;28;20520;-22
2023/12/30 11:10:21;;;;;;;7.38;2.17;;;13.50;99.90;;;;;;5030237;28;20100;-25
2023/12/30 11:12:47;;;;;;;5.63;2.00;;;13.60;99.90;;;;;;5029944;28;20029;-26
2023/12/30 11:15:31;;;;;;;4.57;1.97;;;13.70;99.90;;;;;;5030467;28;20024;-26
2023/12/30 11:18:01;;;;;;;5.40;1.70;;;13.90;99.90;;;;;;5020546;28;20864;-27
2023/12/30 11:20:30;;;;;;;4.05;1.70;;;14.10;99.90;;;;;;5026277;28;20029;-27
2023/12/30 11:23:01;;;;;;;7.80;1.60;;;14.40;99.90;;;;;;5031221;28;20037;-26
2023/12/30 11:25:40;;;;;;;6.05;2.05;;;14.60;99.90;;;;;;5029464;28;20025;-26
2023/12/30 11:28:20;;;;;;;3.65;1.50;;;14.80;99.90;;;;;;5032167;28;20261;-24
2023/12/30 11:30:56;;;;;;;4.83;1.60;;;15.10;99.90;;;;;;5031098;28;20105;-25
2023/12/30 11:33:22;;;;;;;6.07;2.58;;;15.20;99.90;;;;;;5029112;28;20013;-25
2023/12/30 11:35:52;;;;;;;2.97;1.02;;;15.30;99.90;;;;;;5034372;28;20028;-24
2023/12/30 11:38:19;;;;;;;4.10;1.42;;;15.40;99.90;;;;;;5030577;28;20014;-24
2023/12/30 11:40:51;;;;;;;4.70;1.40;;;15.50;99.90;;;;;;5037220;28;20048;-21
2023/12/30 11:43:20;;;;;;;4.93;1.40;;;15.50;99.90;;;;;;5027382;28;20115;-21
2023/12/30 11:45:46;;;;;;;5.05;1.42;;;15.40;99.90;;;;;;5016266;28;20291;-24
2023/12/30 11:48:12;;;;;;;5.72;1.52;;;15.30;99.90;;;;;;5033343;28;20033;-20
2023/12/30 11:50:37;;;;;;;4.47;1.80;;;15.20;99.90;;;;;;5038325;28;20017;-20
2023/12/30 11:53:03;;;;;;;6.05;1.40;;;15.10;99.90;;;;;;5033604;28;20033;-20
2023/12/30 11:55:29;;;;;;;6.82;1.50;;;15.00;99.90;;;;;;5036452;28;20025;-21
2023/12/30 11:57:56;;;;;;;4.80;1.30;;;14.90;99.90;;;;;;5036152;28;20036;-21
2023/12/30 12:00:24;;;;;;;5.93;2.00;;;14.80;99.90;;;;;;5025378;28;20461;-21
2023/12/30 12:02:50;;;;;;;6.18;1.70;;;14.60;99.90;;;;;;5034525;28;20107;-21
2023/12/30 12:05:16;;;;;;;4.50;1.38;;;14.50;99.90;;;;;;5033926;28;20090;-21
2023/12/30 12:07:42;;;;;;;2.95;1.30;;;14.40;99.90;;;;;;5034488;28;20021;-22
2023/12/30 12:10:10;;;;;;;3.20;1.27;;;14.30;99.90;;;;;;5035886;28;20059;-19
2023/12/30 12:12:38;;;;;;;5.43;1.50;;;14.30;99.90;;;;;;5020134;28;20057;-20
2023/12/30 12:15:06;;;;;;;4.82;1.30;;;14.40;99.90;;;;;;5024593;28;20101;-22
2023/12/30 12:17:32;;;;;;;2.85;1.23;;;14.40;99.90;;;;;;5034875;28;20116;-21
2023/12/30 12:19:58;;;;;;;6.43;1.43;;;14.50;99.90;;;;;;5039748;28;20515;-22
2023/12/30 12:22:24;;;;;;;5.20;1.25;;;14.50;99.90;;;;;;5029806;28;20548;-21
2023/12/30 12:24:50;;;;;;;4.73;1.60;;;14.50;99.90;;;;;;5036168;28;20108;-21
2023/12/30 12:27:23;;;;;;;5.47;1.42;;;14.50;99.90;;;;;;5023795;28;20494;-20
2023/12/30 12:29:50;;;;;;;4.10;1.58;;;14.50;99.90;;;;;;5028046;28;20551;-24
2023/12/30 12:32:23;;;;;;;5.38;2.25;;;14.50;99.90;;;;;;5033658;28;20025;-22
2023/12/30 12:34:51;;;;;;;6.80;2.08;;;14.60;99.90;;;;;;5033832;28;20046;-19
2023/12/30 12:37:18;;;;;;;5.80;1.63;;;14.60;99.90;;;;;;5033907;28;20033;-19
2023/12/30 12:39:44;;;;;;;2.83;1.40;;;14.60;99.90;;;;;;5033387;28;20029;-22
2023/12/30 12:42:11;;;;;;;3.63;1.13;;;14.70;99.90;;;;;;5040576;28;20055;-20